createdAt,value
2018-12-07T00:01:31.269Z,14.30
2018-12-07T00:03:59.507Z,14.23
2018-12-07T00:06:27.724Z,14.50
2018-12-07T00:08:55.996Z,13.70
2018-12-07T00:11:24.213Z,13.27
2018-12-07T00:13:52.468Z,13.33
2018-12-07T00:16:20.698Z,12.80
2018-12-07T00:18:48.889Z,13.93
2018-12-07T00:21:17.242Z,13.43
2018-12-07T00:23:45.466Z,13.77
2018-12-07T00:26:13.641Z,13.67
2018-12-07T00:28:41.907Z,13.50
2018-12-07T00:31:10.121Z,12.90
2018-12-07T00:33:38.344Z,13.90
2018-12-07T00:36:06.573Z,14.50
2018-12-07T00:38:34.896Z,13.57
2018-12-07T00:41:03.145Z,13.87
2018-12-07T00:43:31.344Z,13.83
2018-12-07T00:45:59.546Z,14.57
2018-12-07T00:48:27.780Z,14.77
2018-12-07T00:50:55.976Z,15.03
2018-12-07T00:53:24.201Z,14.47
2018-12-07T00:55:52.404Z,14.73
2018-12-07T00:58:20.633Z,15.13
2018-12-07T01:00:48.844Z,14.77
2018-12-07T01:03:17.265Z,14.97
2018-12-07T01:05:45.473Z,14.27
2018-12-07T01:08:13.697Z,15.27
2018-12-07T01:10:42.101Z,14.30
2018-12-07T01:13:10.314Z,14.03
2018-12-07T01:15:38.549Z,13.70
2018-12-07T01:18:06.873Z,14.33
2018-12-07T01:20:35.105Z,14.53
2018-12-07T01:23:03.321Z,14.20
2018-12-07T01:25:31.572Z,14.23
2018-12-07T01:27:59.770Z,13.30
2018-12-07T01:30:27.989Z,14.20
2018-12-07T01:32:56.408Z,14.20
2018-12-07T01:35:24.626Z,14.13
2018-12-07T01:37:52.841Z,14.40
2018-12-07T01:40:21.077Z,14.00
2018-12-07T01:42:49.301Z,15.10
2018-12-07T01:45:17.645Z,14.73
2018-12-07T01:47:45.970Z,15.67
2018-12-07T01:50:15.633Z,14.43
2018-12-07T01:52:43.869Z,14.43
2018-12-07T01:55:12.173Z,15.67
2018-12-07T01:57:40.429Z,15.40
2018-12-07T02:00:08.997Z,15.60
2018-12-07T02:02:37.316Z,15.30
2018-12-07T02:05:05.881Z,14.90
2018-12-07T02:07:35.304Z,15.73
2018-12-07T02:10:04.087Z,16.67
2018-12-07T02:12:32.417Z,16.90
2018-12-07T02:15:00.642Z,18.30
2018-12-07T02:17:28.996Z,18.37
2018-12-07T02:19:57.188Z,18.40
2018-12-07T02:22:25.405Z,17.43
2018-12-07T02:24:53.664Z,18.63
2018-12-07T02:27:21.861Z,18.60
2018-12-07T02:29:50.117Z,18.70
2018-12-07T02:32:18.329Z,19.00
2018-12-07T02:34:46.636Z,19.03
2018-12-07T02:37:14.870Z,19.40
2018-12-07T02:39:43.084Z,20.20
2018-12-07T02:42:11.417Z,19.70
2018-12-07T02:44:39.614Z,20.80
2018-12-07T02:47:07.968Z,21.03
2018-12-07T02:49:36.170Z,20.97
2018-12-07T02:52:04.616Z,20.60
2018-12-07T02:54:32.939Z,21.00
2018-12-07T02:57:01.169Z,21.83
2018-12-07T02:59:29.394Z,21.43
2018-12-07T03:01:57.680Z,21.30
2018-12-07T03:04:26.043Z,20.40
2018-12-07T03:06:54.249Z,21.73
2018-12-07T03:09:22.626Z,22.47
2018-12-07T03:11:50.945Z,22.27
2018-12-07T03:14:19.213Z,22.20
2018-12-07T03:16:47.440Z,22.97
2018-12-07T03:19:15.673Z,23.47
2018-12-07T03:21:43.877Z,24.63
2018-12-07T03:24:12.212Z,25.57
2018-12-07T03:26:40.433Z,23.90
2018-12-07T03:29:08.640Z,25.73
2018-12-07T03:31:37.035Z,28.47
2018-12-07T03:34:05.452Z,25.17
2018-12-07T03:36:33.790Z,31.33
2018-12-07T03:39:01.984Z,28.43
2018-12-07T03:41:30.181Z,28.20
2018-12-07T03:43:58.464Z,33.40
2018-12-07T03:46:26.665Z,32.83
2018-12-07T03:48:55.123Z,30.70
2018-12-07T03:51:23.324Z,34.97
2018-12-07T03:53:51.537Z,32.37
2018-12-07T03:56:19.776Z,32.73
2018-12-07T03:58:47.970Z,34.17
2018-12-07T04:01:16.380Z,32.80
2018-12-07T04:03:44.949Z,37.20
2018-12-07T04:06:13.219Z,34.00
2018-12-07T04:08:41.448Z,31.40
2018-12-07T04:11:09.788Z,32.20
2018-12-07T04:13:38.027Z,34.40
2018-12-07T04:16:06.324Z,36.17
2018-12-07T04:18:34.552Z,42.87
2018-12-07T04:21:02.796Z,38.30
2018-12-07T04:23:31.317Z,39.33
2018-12-07T04:25:59.701Z,34.90
2018-12-07T04:28:27.991Z,37.00
2018-12-07T04:30:56.222Z,35.47
2018-12-07T04:33:24.442Z,36.60
2018-12-07T04:35:52.770Z,40.10
2018-12-07T04:38:21.176Z,41.20
2018-12-07T04:40:49.615Z,36.77
2018-12-07T04:43:17.901Z,32.67
2018-12-07T04:45:46.141Z,40.43
2018-12-07T04:48:14.345Z,45.87
2018-12-07T04:50:42.700Z,39.20
2018-12-07T04:53:11.038Z,36.97
2018-12-07T04:55:39.235Z,41.90
2018-12-07T04:58:07.746Z,34.43
2018-12-07T05:00:36.561Z,35.47
2018-12-07T05:03:04.760Z,31.20
2018-12-07T05:05:32.985Z,30.47
2018-12-07T05:08:01.215Z,28.93
2018-12-07T05:10:29.437Z,24.83
2018-12-07T05:12:57.654Z,25.07
2018-12-07T05:15:26.021Z,24.13
2018-12-07T05:17:54.306Z,22.33
2018-12-07T05:20:22.529Z,25.17
2018-12-07T05:22:50.761Z,20.13
2018-12-07T05:25:18.988Z,20.27
2018-12-07T05:27:47.214Z,20.00
2018-12-07T05:30:15.426Z,18.67
2018-12-07T05:32:43.703Z,19.27
2018-12-07T05:35:11.902Z,21.40
2018-12-07T05:37:40.193Z,18.80
2018-12-07T05:40:08.540Z,19.00
2018-12-07T05:42:36.854Z,19.00
2018-12-07T05:45:05.350Z,18.57
2018-12-07T05:47:33.657Z,19.37
2018-12-07T05:50:02.572Z,18.77
2018-12-07T05:52:30.841Z,18.73
2018-12-07T05:54:59.037Z,17.90
2018-12-07T05:57:27.235Z,18.43
2018-12-07T05:59:55.578Z,18.33
2018-12-07T06:02:23.800Z,17.70
2018-12-07T06:04:52.026Z,18.70
2018-12-07T06:07:20.221Z,18.17
2018-12-07T06:09:48.465Z,18.07
2018-12-07T06:12:16.664Z,17.97
2018-12-07T06:14:44.888Z,17.30
2018-12-07T06:17:13.089Z,18.67
2018-12-07T06:19:41.336Z,18.17
2018-12-07T06:22:09.541Z,19.43
2018-12-07T06:24:37.751Z,19.03
2018-12-07T06:27:05.976Z,20.07
2018-12-07T06:29:34.188Z,20.40
2018-12-07T06:32:02.528Z,20.40
2018-12-07T06:34:30.729Z,20.20
2018-12-07T06:36:58.957Z,21.03
2018-12-07T06:39:27.157Z,21.00
2018-12-07T06:41:55.376Z,20.93
2018-12-07T06:44:23.597Z,20.13
2018-12-07T06:46:51.818Z,20.00
2018-12-07T06:49:20.037Z,18.07
2018-12-07T06:51:48.364Z,18.00
2018-12-07T06:54:16.596Z,17.60
2018-12-07T06:56:44.786Z,17.40
2018-12-07T06:59:12.983Z,17.70
2018-12-07T07:01:41.216Z,17.30
2018-12-07T07:04:09.484Z,17.00
2018-12-07T07:06:37.829Z,18.00
2018-12-07T07:09:08.324Z,18.80
2018-12-07T07:11:36.780Z,19.90
2018-12-07T07:14:05.400Z,19.37
2018-12-07T07:16:33.700Z,19.87
2018-12-07T07:19:01.940Z,20.77
2018-12-07T07:21:30.132Z,21.07
2018-12-07T07:23:58.325Z,21.23
2018-12-07T07:26:26.606Z,22.43
2018-12-07T07:28:54.808Z,24.57
2018-12-07T07:31:23.105Z,23.17
2018-12-07T07:33:51.334Z,24.60
2018-12-07T07:36:19.569Z,25.20
2018-12-07T07:38:47.765Z,23.60
2018-12-07T07:41:15.956Z,23.97
2018-12-07T07:43:45.911Z,24.13
2018-12-07T07:46:14.315Z,22.43
2018-12-07T07:48:42.528Z,22.70
2018-12-07T07:51:10.758Z,23.40
2018-12-07T07:53:38.985Z,21.43
2018-12-07T07:56:15.182Z,21.40
2018-12-07T07:58:38.154Z,20.57
2018-12-07T08:01:06.356Z,22.00
2018-12-07T08:03:34.588Z,20.57
2018-12-07T08:06:02.876Z,20.30
2018-12-07T08:08:31.250Z,20.63
2018-12-07T08:10:59.469Z,22.17
2018-12-07T08:13:27.706Z,19.80
2018-12-07T08:15:55.954Z,19.63
2018-12-07T08:18:24.189Z,22.37
2018-12-07T08:20:52.429Z,23.17
2018-12-07T08:23:20.644Z,22.77
2018-12-07T08:25:48.840Z,22.97
2018-12-07T08:28:17.199Z,23.20
2018-12-07T08:30:45.370Z,23.63
2018-12-07T08:33:13.588Z,23.50
2018-12-07T08:35:42.041Z,23.30
2018-12-07T08:38:10.286Z,21.70
2018-12-07T08:40:38.580Z,22.03
2018-12-07T08:43:06.779Z,21.80
2018-12-07T08:45:35.029Z,19.60
2018-12-07T08:48:03.337Z,19.33
2018-12-07T08:50:31.569Z,20.30
2018-12-07T08:52:59.757Z,19.60
2018-12-07T08:55:27.953Z,17.60
2018-12-07T08:57:56.173Z,17.20
2018-12-07T09:00:24.586Z,19.10
2018-12-07T09:02:52.793Z,17.57
2018-12-07T09:05:21.025Z,17.70
2018-12-07T09:07:49.221Z,16.90
2018-12-07T09:10:17.446Z,16.93
2018-12-07T09:12:46.002Z,16.73
2018-12-07T09:15:14.289Z,15.53
2018-12-07T09:17:42.533Z,15.73
2018-12-07T09:20:10.729Z,15.53
2018-12-07T09:22:38.960Z,15.73
2018-12-07T09:25:07.588Z,15.77
2018-12-07T09:27:35.861Z,15.67
2018-12-07T09:30:04.905Z,15.90
2018-12-07T09:32:33.133Z,16.20
2018-12-07T09:35:01.421Z,15.90
2018-12-07T09:37:29.703Z,15.33
2018-12-07T09:39:58.025Z,15.20
2018-12-07T09:42:26.366Z,14.83
2018-12-07T09:44:54.547Z,16.50
2018-12-07T09:47:22.764Z,16.50
2018-12-07T09:49:50.992Z,29.23
2018-12-07T09:52:19.272Z,22.30
2018-12-07T09:54:47.508Z,21.40
2018-12-07T09:57:15.762Z,20.90
2018-12-07T09:59:43.980Z,22.17
2018-12-07T10:02:12.210Z,22.33
2018-12-07T10:04:40.435Z,22.67
2018-12-07T10:07:08.757Z,21.53
2018-12-07T10:09:36.981Z,22.80
2018-12-07T10:12:05.248Z,22.27
2018-12-07T10:14:33.481Z,20.80
2018-12-07T10:17:01.708Z,20.80
2018-12-07T10:19:29.900Z,19.83
2018-12-07T10:21:58.100Z,19.33
2018-12-07T10:24:26.320Z,19.40
2018-12-07T10:26:54.652Z,19.60
2018-12-07T10:29:22.880Z,20.67
2018-12-07T10:31:51.081Z,19.37
2018-12-07T10:34:19.313Z,18.80
2018-12-07T10:36:47.513Z,20.33
2018-12-07T10:39:15.744Z,18.90
2018-12-07T10:41:43.977Z,19.10
2018-12-07T10:44:12.210Z,18.50
2018-12-07T10:46:40.437Z,17.20
2018-12-07T10:49:08.761Z,17.40
2018-12-07T10:51:36.984Z,17.67
2018-12-07T10:54:05.201Z,15.40
2018-12-07T10:56:33.419Z,15.93
2018-12-07T10:59:01.653Z,16.00
2018-12-07T11:01:35.411Z,16.20
2018-12-07T11:04:09.161Z,15.50
2018-12-07T11:06:42.593Z,16.07
2018-12-07T11:09:16.137Z,16.20
2018-12-07T11:11:51.572Z,15.97
2018-12-07T11:14:25.162Z,16.27
2018-12-07T11:16:58.628Z,16.43
2018-12-07T11:19:32.306Z,15.83
2018-12-07T11:22:05.965Z,16.17
2018-12-07T11:24:39.441Z,16.03
2018-12-07T11:27:13.679Z,15.90
2018-12-07T11:29:47.368Z,16.00
2018-12-07T11:32:19.029Z,17.03
2018-12-07T11:34:51.677Z,16.47
2018-12-07T11:37:19.869Z,15.60
2018-12-07T11:39:48.463Z,16.80
2018-12-07T11:42:16.672Z,15.80
2018-12-07T11:44:44.872Z,15.30
2018-12-07T11:47:13.094Z,16.00
2018-12-07T11:49:41.277Z,18.10
2018-12-07T11:52:09.503Z,15.70
2018-12-07T11:54:37.693Z,16.00
2018-12-07T11:57:05.909Z,16.10
2018-12-07T11:59:34.160Z,15.10
2018-12-07T12:02:02.381Z,15.43
2018-12-07T12:04:30.597Z,15.40
2018-12-07T12:06:58.817Z,16.13
2018-12-07T12:09:27.027Z,14.80
2018-12-07T12:11:55.243Z,15.20
2018-12-07T12:14:23.441Z,14.90
2018-12-07T12:16:51.671Z,13.87
2018-12-07T12:19:19.880Z,14.70
2018-12-07T12:21:48.221Z,14.93
2018-12-07T12:24:16.425Z,14.20
2018-12-07T12:26:44.609Z,14.60
2018-12-07T12:29:12.841Z,14.97
2018-12-07T12:31:41.118Z,14.43
2018-12-07T12:34:09.347Z,14.37
2018-12-07T12:36:37.538Z,14.60
2018-12-07T12:39:07.509Z,14.87
2018-12-07T12:41:35.721Z,14.50
2018-12-07T12:44:04.097Z,15.33
2018-12-07T12:46:32.311Z,15.13
2018-12-07T12:49:00.517Z,14.70
2018-12-07T12:51:28.734Z,14.77
2018-12-07T12:53:57.508Z,14.80
2018-12-07T12:56:25.753Z,14.80
2018-12-07T12:58:53.984Z,15.20
2018-12-07T13:01:22.177Z,15.13
2018-12-07T13:03:50.468Z,15.60
2018-12-07T13:06:18.805Z,15.90
2018-12-07T13:08:46.984Z,15.57
2018-12-07T13:11:15.228Z,15.00
2018-12-07T13:13:43.445Z,14.87
2018-12-07T13:16:11.885Z,14.77
2018-12-07T13:18:40.103Z,15.23
2018-12-07T13:21:08.293Z,15.03
2018-12-07T13:23:36.565Z,15.10
2018-12-07T13:26:04.761Z,15.40
2018-12-07T13:28:32.978Z,15.13
2018-12-07T13:31:01.218Z,15.50
2018-12-07T13:33:29.438Z,14.83
2018-12-07T13:35:57.668Z,15.67
2018-12-07T13:38:25.889Z,14.63
2018-12-07T13:40:54.097Z,15.47
2018-12-07T13:43:22.779Z,15.70
2018-12-07T13:45:51.069Z,15.30
2018-12-07T13:48:19.483Z,16.00
2018-12-07T13:50:47.816Z,15.93
2018-12-07T13:53:16.234Z,17.27
2018-12-07T13:55:44.947Z,16.73
2018-12-07T13:58:13.356Z,16.70
2018-12-07T14:00:41.877Z,15.80
2018-12-07T14:03:10.365Z,16.77
2018-12-07T14:05:38.662Z,17.07
2018-12-07T14:08:07.092Z,17.30
2018-12-07T14:10:35.616Z,17.50
2018-12-07T14:13:04.030Z,17.60
2018-12-07T14:15:32.578Z,17.50
2018-12-07T14:18:01.015Z,17.00
2018-12-07T14:20:29.444Z,17.93
2018-12-07T14:22:57.927Z,16.90
2018-12-07T14:25:26.230Z,17.50
2018-12-07T14:27:54.639Z,18.43
2018-12-07T14:30:23.176Z,17.77
2018-12-07T14:32:51.563Z,18.80
2018-12-07T14:35:20.049Z,18.10
2018-12-07T14:37:48.570Z,18.50
2018-12-07T14:40:16.986Z,18.63
2018-12-07T14:42:45.575Z,19.57
2018-12-07T14:45:13.896Z,20.00
2018-12-07T14:47:42.469Z,19.50
2018-12-07T14:50:11.001Z,18.93
2018-12-07T14:52:39.234Z,19.60
2018-12-07T14:55:07.743Z,18.03
2018-12-07T14:57:36.198Z,18.80
2018-12-07T15:00:06.750Z,17.90
2018-12-07T15:02:35.151Z,17.77
2018-12-07T15:05:04.217Z,18.57
2018-12-07T15:07:32.636Z,18.23
2018-12-07T15:10:00.973Z,17.80
2018-12-07T15:12:29.431Z,18.03
2018-12-07T15:14:57.779Z,18.27
2018-12-07T15:17:26.048Z,18.47
2018-12-07T15:19:54.423Z,17.93
2018-12-07T15:22:22.689Z,19.50
2018-12-07T15:24:51.035Z,19.67
2018-12-07T15:27:19.484Z,19.77
2018-12-07T15:29:47.946Z,19.57
2018-12-07T15:32:16.278Z,20.03
2018-12-07T15:34:44.776Z,19.10
2018-12-07T15:37:13.228Z,20.30
2018-12-07T15:39:41.450Z,19.93
2018-12-07T15:42:09.773Z,19.83
2018-12-07T15:44:38.052Z,20.57
2018-12-07T15:47:06.714Z,19.03
2018-12-07T15:49:37.184Z,19.63
2018-12-07T15:52:05.805Z,20.03
2018-12-07T15:54:34.248Z,20.10
2018-12-07T15:57:02.501Z,20.43
2018-12-07T15:59:34.474Z,21.70
2018-12-07T16:02:01.010Z,22.93
2018-12-07T16:04:29.408Z,22.83
2018-12-07T16:06:57.721Z,22.93
2018-12-07T16:09:26.103Z,24.37
2018-12-07T16:11:54.404Z,21.93
2018-12-07T16:14:22.641Z,22.60
2018-12-07T16:16:51.209Z,22.93
2018-12-07T16:19:19.586Z,21.83
2018-12-07T16:21:48.101Z,23.13
2018-12-07T16:24:16.613Z,21.07
2018-12-07T16:26:45.197Z,21.00
2018-12-07T16:29:13.556Z,21.10
2018-12-07T16:31:42.027Z,22.27
2018-12-07T16:34:10.457Z,21.70
2018-12-07T16:36:38.793Z,21.73
2018-12-07T16:39:08.391Z,22.17
2018-12-07T16:41:36.973Z,21.70
2018-12-07T16:44:05.425Z,21.67
2018-12-07T16:46:33.790Z,23.10
2018-12-07T16:49:02.406Z,21.70
2018-12-07T16:51:30.849Z,22.30
2018-12-07T16:53:59.170Z,23.50
2018-12-07T16:56:27.845Z,25.13
2018-12-07T16:58:56.271Z,23.87
2018-12-07T17:01:24.692Z,23.03
2018-12-07T17:03:53.381Z,23.30
2018-12-07T17:06:21.823Z,23.50
2018-12-07T17:08:50.335Z,23.50
2018-12-07T17:11:18.996Z,23.97
2018-12-07T17:13:47.609Z,24.67
2018-12-07T17:16:15.934Z,23.60
2018-12-07T17:18:44.167Z,22.73
2018-12-07T17:21:12.492Z,24.23
2018-12-07T17:23:41.103Z,23.37
2018-12-07T17:26:09.397Z,23.87
2018-12-07T17:28:37.669Z,22.67
2018-12-07T17:31:05.865Z,22.53
2018-12-07T17:33:34.165Z,22.00
2018-12-07T17:36:02.464Z,22.50
2018-12-07T17:38:30.752Z,22.17
2018-12-07T17:40:59.143Z,21.40
2018-12-07T17:43:27.552Z,21.00
2018-12-07T17:45:56.082Z,20.70
2018-12-07T17:48:24.683Z,21.53
2018-12-07T17:50:53.139Z,21.57
2018-12-07T17:53:21.608Z,21.20
2018-12-07T17:55:50.041Z,20.47
2018-12-07T18:01:02.004Z,19.57
2018-12-07T18:03:30.445Z,20.20
2018-12-07T18:05:58.844Z,20.50
2018-12-07T18:08:27.147Z,20.23
2018-12-07T18:10:55.725Z,19.67
2018-12-07T18:13:24.096Z,20.00
2018-12-07T18:15:52.369Z,20.10
2018-12-07T18:18:20.833Z,20.37
2018-12-07T18:20:49.324Z,20.40
2018-12-07T18:23:17.645Z,19.87
2018-12-07T18:25:46.017Z,21.00
2018-12-07T18:28:14.437Z,20.73
2018-12-07T18:30:42.732Z,20.23
2018-12-07T18:33:11.138Z,20.60
2018-12-07T18:35:39.548Z,20.87
2018-12-07T18:38:08.537Z,20.10
2018-12-07T18:40:37.075Z,19.67
2018-12-07T18:43:05.634Z,20.13
2018-12-07T18:45:34.188Z,20.17
2018-12-07T18:48:02.654Z,20.70
2018-12-07T18:50:31.084Z,20.80
2018-12-07T18:53:00.133Z,21.00
2018-12-07T18:55:28.428Z,22.20
2018-12-07T18:57:56.729Z,20.93
2018-12-07T19:00:25.320Z,21.03
2018-12-07T19:02:53.749Z,21.13
2018-12-07T19:05:22.327Z,21.60
2018-12-07T19:07:50.880Z,21.93
2018-12-07T19:10:19.438Z,23.20
2018-12-07T19:12:47.808Z,21.20
2018-12-07T19:15:16.178Z,21.87
2018-12-07T19:17:44.547Z,21.53
2018-12-07T19:20:13.089Z,21.70
2018-12-07T19:22:41.405Z,22.40
2018-12-07T19:25:09.723Z,23.20
2018-12-07T19:27:37.993Z,22.40
2018-12-07T19:30:14.609Z,22.97
2018-12-07T19:32:40.386Z,24.50
2018-12-07T19:35:08.764Z,22.47
2018-12-07T19:37:37.293Z,23.20
2018-12-07T19:40:06.538Z,22.87
2018-12-07T19:42:34.977Z,22.40
2018-12-07T19:45:03.674Z,22.30
2018-12-07T19:47:32.138Z,21.60
2018-12-07T19:50:00.443Z,21.70
2018-12-07T19:52:28.931Z,21.80
2018-12-07T19:54:57.574Z,21.27
2018-12-07T19:57:25.977Z,22.30
2018-12-07T19:59:54.501Z,13.47
2018-12-07T20:02:22.764Z,14.10
2018-12-07T20:04:51.110Z,13.40
2018-12-07T20:07:19.501Z,14.10
2018-12-07T20:09:48.040Z,12.63
2018-12-07T20:12:16.307Z,13.73
2018-12-07T20:14:44.757Z,12.47
2018-12-07T20:17:13.118Z,12.63
2018-12-07T20:19:41.324Z,13.80
2018-12-07T20:22:09.706Z,13.03
2018-12-07T20:24:38.166Z,13.17
2018-12-07T20:27:06.710Z,14.23
2018-12-07T20:29:35.343Z,15.27
2018-12-07T20:32:03.885Z,15.50
2018-12-07T20:34:32.192Z,15.27
2018-12-07T20:37:00.588Z,14.90
2018-12-07T20:39:29.493Z,13.73
2018-12-07T20:41:57.963Z,14.77
2018-12-07T20:44:26.337Z,15.50
2018-12-07T20:46:54.911Z,13.63
2018-12-07T20:49:23.998Z,14.10
2018-12-07T20:51:52.615Z,15.40
2018-12-07T20:54:21.040Z,14.30
2018-12-07T20:56:49.419Z,13.90
2018-12-07T20:59:17.805Z,14.60
2018-12-07T21:01:51.616Z,14.67
2018-12-07T21:04:38.286Z,14.73
2018-12-07T21:08:14.533Z,16.87
2018-12-07T21:11:19.387Z,15.13
2018-12-07T21:14:39.984Z,16.70
2018-12-07T21:17:15.789Z,19.50
2018-12-07T21:19:48.275Z,15.83
2018-12-07T21:22:16.938Z,17.07
2018-12-07T21:24:45.309Z,16.30
2018-12-07T21:27:13.854Z,14.20
2018-12-07T21:29:42.291Z,15.80
2018-12-07T21:32:16.260Z,14.30
2018-12-07T21:34:55.318Z,14.70
2018-12-07T21:37:23.957Z,14.43
2018-12-07T21:40:03.644Z,13.90
2018-12-07T21:42:31.918Z,14.30
2018-12-07T21:45:00.112Z,13.67
2018-12-07T21:47:58.713Z,15.00
2018-12-07T21:50:27.104Z,14.00
2018-12-07T21:52:55.447Z,14.50
2018-12-07T21:55:23.997Z,13.87
2018-12-07T21:57:52.451Z,13.43
2018-12-07T22:00:20.828Z,14.40
2018-12-07T22:02:49.306Z,13.50
2018-12-07T22:05:17.797Z,14.30
2018-12-07T22:07:46.377Z,13.97
2018-12-07T22:10:14.943Z,15.13
2018-12-07T22:12:43.317Z,15.17
2018-12-07T22:15:11.621Z,14.73
2018-12-07T22:17:40.378Z,15.83
2018-12-07T22:20:08.751Z,14.40
2018-12-07T22:22:37.000Z,15.03
2018-12-07T22:25:05.497Z,14.47
2018-12-07T22:27:33.866Z,14.57
2018-12-07T22:30:02.260Z,14.23
2018-12-07T22:32:30.739Z,13.17
2018-12-07T22:34:59.207Z,14.13
2018-12-07T22:37:27.910Z,13.83
2018-12-07T22:39:56.427Z,13.73
2018-12-07T22:42:24.800Z,14.30
2018-12-07T22:44:53.163Z,13.10
2018-12-07T22:47:21.764Z,14.40
2018-12-07T22:49:50.076Z,12.33
2018-12-07T22:52:18.308Z,14.60
2018-12-07T22:54:46.525Z,13.93
2018-12-07T22:57:14.761Z,14.70
2018-12-07T22:59:42.978Z,15.70
2018-12-07T23:02:11.804Z,15.63
2018-12-07T23:04:40.065Z,14.40
2018-12-07T23:07:08.352Z,13.47
2018-12-07T23:09:36.962Z,14.20
2018-12-07T23:12:05.396Z,14.70
2018-12-07T23:14:33.837Z,13.93
2018-12-07T23:17:02.055Z,16.20
2018-12-07T23:19:30.292Z,14.90
2018-12-07T23:21:58.501Z,14.57
2018-12-07T23:24:26.698Z,15.43
2018-12-07T23:26:54.948Z,14.80
2018-12-07T23:29:23.714Z,16.63
2018-12-07T23:31:52.048Z,15.50
2018-12-07T23:34:20.321Z,14.83
2018-12-07T23:36:48.517Z,15.33
2018-12-07T23:39:16.881Z,16.13
2018-12-07T23:41:45.124Z,17.40
2018-12-07T23:44:13.442Z,15.83
2018-12-07T23:46:41.660Z,16.50
2018-12-07T23:49:09.901Z,16.70
2018-12-07T23:51:38.112Z,15.90
2018-12-07T23:54:06.374Z,14.20
2018-12-07T23:56:34.701Z,17.77
2018-12-07T23:59:03.001Z,14.50
